Wrecclesham, United Kingdom

08:56 PM GMT die 11o December, anno 2017 (GMT +0000)
Bourne Dene | | Change Station

Elev 288 ft 51.19 °N, 0.81 °W | Updated 13 minutes ago

Serena
Serena
32.4 °F
Feels Like 28 °F
N
4.3
Ventus Variabilis Ventus from Magis Aquilo quam Eurus
Gusts 5.6 mph

Hodie
High -- | Low -- °F
--% Chance of Precip.
Yesterday
High -- | Low -- °F
Precip. -- in
Pressio 29.33 in
Visibilitas -9999.0 milia passuum
Clouds
Frigus Venti 28 °F
Frigus in quo Ros apparet 30 °F
Umor 92%
Rainfall 0.32 in
Snow Depth Not available.
7:57 AM 3:55 PM
Waning Crescent, 34% visible
METAR EGKA 111950Z 35009KT CAVOK 01/M01 Q0993
Pressio 29.33 in
Visibilitas -9999.0 milia passuum
Clouds
Frigus Venti 28 °F
Frigus in quo Ros apparet 30 °F
Umor 92%
Rainfall 0.32 in
Snow Depth Not available.
7:57 AM 3:55 PM
Waning Crescent, 34% visible
METAR EGKA 111950Z 35009KT CAVOK 01/M01 Q0993

Get Severe Weather Alerts

Thanks for signing up!

Be on the lookout for a verification email in your inbox.

You'll start receiving the daily forecast at 6 AM.

×

10-Day Weather Forecast

×

Almanac

Astronomy

Dec. 11, 2017 Rise Set
Actual Time
Civil Twilight
Nautical Twilight
Astronomical Twilight
Moon
Length Of Visible Light
Length of Day
Tomorrow will be .
, % of the Moon is Illuminated

Today's Extremes

Country Highs Country Lows

Community

WunderPhotos

Category 6

Welcome to Category 6. This is the collective home for Weather Underground's featured writeups by Dr. Jeff Masters (right), Bob Henson (left), Chris Burt, and other regular contributors.

Nearby

Air Quality

  Air Quality AQ Index Pollutant
Not available.

Snow Depth

Station Depth Elevation

Earthquake Activity

City Distance Mag. Time & Date
Minimum magnitude displayed is 2.5.

Coastal Water Temperatures

Locus Calor

Stations

Nearby Weather Stations

Station Location Temp Frigus Venti Frigus in quo Ros apparet Umor Ventus Precip. Elev Renovata Type